createdAt,value
2022-08-09T00:01:25.001Z,101259.36
2022-08-09T00:04:34.524Z,101256.14
2022-08-09T00:07:25.801Z,101252.16
2022-08-09T00:10:24.380Z,101250.95
2022-08-09T00:13:17.633Z,101251.40
2022-08-09T00:16:12.894Z,101248.48
2022-08-09T00:19:09.344Z,101251.89
2022-08-09T00:22:03.637Z,101253.38
2022-08-09T00:24:55.721Z,101257.85
2022-08-09T00:27:48.098Z,101262.66
2022-08-09T00:30:38.555Z,101265.17
2022-08-09T00:33:32.774Z,101265.33
2022-08-09T00:36:41.636Z,101264.48
2022-08-09T00:40:13.195Z,101263.27
2022-08-09T00:44:19.391Z,101265.96
2022-08-09T00:45:54.087Z,101272.48
2022-08-09T00:48:47.578Z,101275.34
2022-08-09T00:51:44.124Z,101269.18
2022-08-09T00:54:45.392Z,101267.66
2022-08-09T00:57:36.035Z,101275.95
2022-08-09T01:00:25.993Z,101273.98
2022-08-09T01:03:19.029Z,101279.04
2022-08-09T01:06:17.996Z,101276.98
2022-08-09T01:09:15.352Z,101278.33
2022-08-09T01:12:19.055Z,101286.11
2022-08-09T01:15:17.690Z,101283.34
2022-08-09T01:18:14.264Z,101283.55
2022-08-09T01:21:18.611Z,101291.05
2022-08-09T01:24:17.593Z,101288.27
2022-08-09T01:27:10.205Z,101289.05
2022-08-09T01:30:05.337Z,101285.34
2022-08-09T01:32:59.014Z,101287.42
2022-08-09T01:36:01.411Z,101291.02
2022-08-09T01:38:53.926Z,101288.27
2022-08-09T01:41:53.752Z,101289.05
2022-08-09T01:44:52.654Z,101285.94
2022-08-09T01:47:44.898Z,101284.81
2022-08-09T01:50:36.983Z,101292.84
2022-08-09T01:53:41.642Z,101290.45
2022-08-09T01:56:35.299Z,101295.41
2022-08-09T01:59:32.216Z,101297.46
2022-08-09T02:02:31.218Z,101297.13
2022-08-09T02:05:37.903Z,101299.25
2022-08-09T02:08:57.997Z,101302.84
2022-08-09T02:11:50.127Z,101297.95
2022-08-09T02:14:43.585Z,101295.56
2022-08-09T02:18:00.799Z,101301.28
2022-08-09T02:21:00.448Z,101298.36
2022-08-09T02:23:56.358Z,101299.09
2022-08-09T02:26:50.631Z,101295.08
2022-08-09T02:29:47.053Z,101295.30
2022-08-09T02:32:46.036Z,101295.22
2022-08-09T02:36:02.956Z,101302.43
2022-08-09T02:38:56.235Z,101293.77
2022-08-09T02:41:49.870Z,101300.11
2022-08-09T02:44:44.644Z,101298.48
2022-08-09T02:47:57.818Z,101296.45
2022-08-09T02:50:54.352Z,101302.06
2022-08-09T02:53:52.930Z,101303.48
2022-08-09T02:56:57.057Z,101306.04
2022-08-09T03:00:11.637Z,101303.27
2022-08-09T03:03:02.006Z,101307.36
2022-08-09T03:05:55.553Z,101304.35
2022-08-09T03:08:47.826Z,101300.77
2022-08-09T03:12:09.619Z,101300.90
2022-08-09T03:14:51.906Z,101302.20
2022-08-09T03:17:44.828Z,101298.71
2022-08-09T03:20:35.052Z,101300.56
2022-08-09T03:23:29.047Z,101298.76
2022-08-09T03:26:21.583Z,101299.80
2022-08-09T03:29:22.724Z,101293.72
2022-08-09T03:32:14.936Z,101293.70
2022-08-09T03:35:24.454Z,101291.01
2022-08-09T03:38:28.537Z,101283.44
2022-08-09T03:41:19.386Z,101283.91
2022-08-09T03:44:21.987Z,101283.77
2022-08-09T03:47:19.687Z,101282.30
2022-08-09T03:50:12.280Z,101280.33
2022-08-09T03:53:06.268Z,101280.71
2022-08-09T03:56:01.594Z,101281.00
2022-08-09T03:58:54.680Z,101277.30
2022-08-09T04:01:46.301Z,101277.81
2022-08-09T04:04:38.806Z,101280.02
2022-08-09T04:07:47.593Z,101284.16
2022-08-09T04:10:40.436Z,101282.23
2022-08-09T04:13:44.883Z,101277.00
2022-08-09T04:16:42.030Z,101279.31
2022-08-09T04:19:51.091Z,101280.33
2022-08-09T04:22:44.869Z,101285.48
2022-08-09T04:25:34.996Z,101284.83
2022-08-09T04:28:33.195Z,101289.67
2022-08-09T04:31:26.272Z,101290.23
2022-08-09T04:34:33.637Z,101294.13
2022-08-09T04:37:24.578Z,101293.52
2022-08-09T04:40:56.168Z,101292.61
2022-08-09T04:44:04.907Z,101292.73
2022-08-09T04:46:57.763Z,101296.42
2022-08-09T04:49:55.055Z,101295.45
2022-08-09T04:52:45.639Z,101293.41
2022-08-09T04:55:57.452Z,101301.09
2022-08-09T04:58:50.795Z,101308.91
2022-08-09T05:01:40.985Z,101315.21
2022-08-09T05:04:31.652Z,101322.78
2022-08-09T05:07:24.904Z,101329.82
2022-08-09T05:10:17.960Z,101336.98
2022-08-09T05:13:10.828Z,101341.80
2022-08-09T05:16:00.827Z,101340.66
2022-08-09T05:18:58.415Z,101344.75
2022-08-09T05:21:55.265Z,101340.66
2022-08-09T05:24:47.630Z,101340.61
2022-08-09T05:27:45.546Z,101347.55
2022-08-09T05:30:39.237Z,101348.33
2022-08-09T05:33:42.426Z,101354.02
2022-08-09T05:36:32.793Z,101364.57
2022-08-09T05:39:29.442Z,101369.64
2022-08-09T05:42:28.025Z,101369.98
2022-08-09T05:45:19.455Z,101370.38
2022-08-09T05:48:15.497Z,101372.39
2022-08-09T05:51:30.225Z,101369.27
2022-08-09T05:54:17.979Z,101372.63
2022-08-09T05:57:12.724Z,101372.66
2022-08-09T06:00:04.736Z,101374.58
2022-08-09T06:03:10.671Z,101376.81
2022-08-09T06:06:06.149Z,101378.59
2022-08-09T06:08:56.512Z,101374.08
2022-08-09T06:11:56.932Z,101371.96
2022-08-09T06:14:48.166Z,101368.77
2022-08-09T06:17:40.599Z,101370.20
2022-08-09T06:20:31.759Z,101370.78
2022-08-09T06:23:22.176Z,101370.41
2022-08-09T06:26:12.903Z,101365.80
2022-08-09T06:29:05.232Z,101369.80
2022-08-09T06:32:17.197Z,101372.13
2022-08-09T06:35:07.366Z,101374.89
2022-08-09T06:38:05.980Z,101377.79
2022-08-09T06:40:57.322Z,101380.80
2022-08-09T06:43:49.682Z,101382.76
2022-08-09T06:46:44.762Z,101378.02
2022-08-09T06:50:12.168Z,101376.60
2022-08-09T06:52:48.807Z,101375.86
2022-08-09T06:55:39.025Z,101376.59
2022-08-09T07:00:46.446Z,101375.98
2022-08-09T07:01:54.220Z,101380.08
2022-08-09T07:04:51.713Z,101384.74
2022-08-09T07:08:00.693Z,101386.85
2022-08-09T07:10:52.662Z,101387.27
2022-08-09T07:13:45.328Z,101382.50
2022-08-09T07:16:57.700Z,101384.40
2022-08-09T07:19:50.916Z,101384.02
2022-08-09T07:22:50.948Z,101385.17
2022-08-09T07:25:43.646Z,101382.55
2022-08-09T07:28:34.678Z,101387.58
2022-08-09T07:31:25.260Z,101388.71
2022-08-09T07:34:20.105Z,101394.38
2022-08-09T07:37:15.545Z,101394.40
2022-08-09T07:40:07.783Z,101395.45
2022-08-09T07:42:59.867Z,101389.30
2022-08-09T07:45:49.794Z,101386.60
2022-08-09T07:48:40.588Z,101388.75
2022-08-09T07:52:04.947Z,101390.79
2022-08-09T07:54:41.117Z,101390.83
2022-08-09T07:57:36.033Z,101399.19
2022-08-09T08:00:35.772Z,101402.17
2022-08-09T08:03:27.255Z,101401.86
2022-08-09T08:06:21.334Z,101398.73
2022-08-09T08:09:35.585Z,101395.27
2022-08-09T08:12:33.852Z,101398.55
2022-08-09T08:15:25.208Z,101396.25
2022-08-09T08:18:16.463Z,101400.64
2022-08-09T08:21:07.601Z,101401.97
2022-08-09T08:24:01.095Z,101397.63
2022-08-09T08:27:01.826Z,101398.59
2022-08-09T08:29:53.242Z,101402.11
2022-08-09T08:32:53.469Z,101401.88
2022-08-09T08:35:58.440Z,101399.77
2022-08-09T08:38:53.831Z,101403.13
2022-08-09T08:41:51.425Z,101407.98
2022-08-09T08:44:44.224Z,101407.14
2022-08-09T08:47:38.592Z,101406.30
2022-08-09T08:50:34.958Z,101406.98
2022-08-09T08:53:32.267Z,101406.04
2022-08-09T08:56:28.580Z,101403.97
2022-08-09T08:59:24.160Z,101402.61
2022-08-09T09:02:34.016Z,101405.23
2022-08-09T09:05:57.713Z,101403.23
2022-08-09T09:08:44.314Z,101400.76
2022-08-09T09:11:44.761Z,101407.71
2022-08-09T09:14:40.931Z,101408.06
2022-08-09T09:17:48.267Z,101403.02
2022-08-09T09:20:40.265Z,101401.81
2022-08-09T09:23:49.598Z,101398.84
2022-08-09T09:26:57.755Z,101400.13
2022-08-09T09:33:13.957Z,101400.74
2022-08-09T09:36:20.588Z,101399.98
2022-08-09T09:39:14.504Z,101396.27
2022-08-09T09:42:11.886Z,101392.48
2022-08-09T09:45:04.105Z,101382.15
2022-08-09T09:47:58.433Z,101386.90
2022-08-09T09:50:52.731Z,101378.56
2022-08-09T09:53:57.477Z,101373.04
2022-08-09T09:58:01.516Z,101375.52
2022-08-09T10:00:24.210Z,101378.47
2022-08-09T10:03:18.294Z,101373.56
2022-08-09T10:06:13.332Z,101369.10
2022-08-09T10:09:12.058Z,101372.23
2022-08-09T10:12:27.987Z,101371.33
2022-08-09T10:15:51.150Z,101378.11
2022-08-09T10:18:33.681Z,101375.38
2022-08-09T10:21:26.524Z,101380.09
2022-08-09T10:24:25.648Z,101376.53
2022-08-09T10:27:28.708Z,101366.77
2022-08-09T10:34:09.658Z,101367.88
2022-08-09T10:36:56.905Z,101366.79
2022-08-09T10:39:50.047Z,101366.26
2022-08-09T10:42:41.142Z,101367.09
2022-08-09T10:45:49.221Z,101362.44
2022-08-09T10:48:52.263Z,101359.25
2022-08-09T10:51:52.793Z,101360.09
2022-08-09T10:54:44.300Z,101351.39
2022-08-09T10:57:41.794Z,101344.92
2022-08-09T11:01:11.039Z,101343.63
2022-08-09T11:04:27.807Z,101340.84
2022-08-09T11:07:57.563Z,101340.25
2022-08-09T11:11:00.774Z,101333.02
2022-08-09T11:14:35.365Z,101332.88
2022-08-09T11:18:03.097Z,101332.20
2022-08-09T11:20:56.447Z,101326.42
2022-08-09T11:24:04.151Z,101325.63
2022-08-09T11:26:55.120Z,101320.40
2022-08-09T11:30:04.640Z,101322.57
2022-08-09T11:33:01.763Z,101321.22
2022-08-09T11:36:02.357Z,101317.30
2022-08-09T11:39:05.579Z,101309.73
2022-08-09T11:41:58.932Z,101308.17
2022-08-09T11:44:50.157Z,101308.31
2022-08-09T11:47:49.408Z,101306.48
2022-08-09T11:52:59.085Z,101306.80
2022-08-09T11:54:21.620Z,101305.39
2022-08-09T11:58:00.005Z,101303.41
2022-08-09T12:00:54.562Z,101298.87
2022-08-09T12:03:55.947Z,101302.28
2022-08-09T12:06:56.624Z,101297.66
2022-08-09T12:09:51.383Z,101294.63
2022-08-09T12:12:52.841Z,101288.98
2022-08-09T12:15:48.885Z,101285.70
2022-08-09T12:18:44.536Z,101278.29
2022-08-09T12:21:50.514Z,101280.86
2022-08-09T12:24:42.993Z,101276.70
2022-08-09T12:29:11.904Z,101281.98
2022-08-09T12:30:44.583Z,101284.02
2022-08-09T12:33:58.629Z,101283.96
2022-08-09T12:37:21.393Z,101280.72
2022-08-09T12:40:13.570Z,101283.88
2022-08-09T12:43:04.567Z,101284.39
2022-08-09T12:45:59.742Z,101288.63
2022-08-09T12:48:50.666Z,101289.47
2022-08-09T12:51:59.976Z,101285.20
2022-08-09T12:56:11.015Z,101293.54
2022-08-09T12:58:24.347Z,101299.57
2022-08-09T13:01:28.952Z,101301.77
2022-08-09T13:04:36.668Z,101304.25
2022-08-09T13:07:50.958Z,101303.61
2022-08-09T13:10:52.345Z,101308.75
2022-08-09T13:14:41.145Z,101309.92
2022-08-09T13:16:54.796Z,101309.24
2022-08-09T13:20:10.211Z,101309.19
2022-08-09T13:23:06.043Z,101299.85
2022-08-09T13:26:10.054Z,101298.64
2022-08-09T13:29:08.888Z,101298.98
2022-08-09T13:32:17.101Z,101299.40
2022-08-09T13:35:11.587Z,101299.14
2022-08-09T13:38:02.587Z,101304.78
2022-08-09T13:41:56.541Z,101309.02
2022-08-09T13:44:13.642Z,101301.13
2022-08-09T13:47:26.714Z,101294.86
2022-08-09T13:50:30.016Z,101292.42
2022-08-09T13:53:38.741Z,101290.98
2022-08-09T13:56:32.352Z,101286.13
2022-08-09T13:59:25.360Z,101287.34
2022-08-09T14:02:16.743Z,101286.05
2022-08-09T14:05:15.704Z,101285.24
2022-08-09T14:08:26.827Z,101290.04
2022-08-09T14:11:18.933Z,101287.13
2022-08-09T14:14:22.539Z,101284.15
2022-08-09T14:17:16.905Z,101282.31
2022-08-09T14:20:14.410Z,101287.86
2022-08-09T14:23:06.644Z,101288.27
2022-08-09T14:26:01.619Z,101287.68
2022-08-09T14:28:56.696Z,101290.74
2022-08-09T14:31:51.860Z,101284.55
2022-08-09T14:34:45.496Z,101282.71
2022-08-09T14:37:41.297Z,101275.66
2022-08-09T14:41:02.830Z,101275.63
2022-08-09T14:43:56.906Z,101275.27
2022-08-09T14:47:04.714Z,101269.71
2022-08-09T14:50:01.801Z,101266.95
2022-08-09T14:52:52.171Z,101262.06
2022-08-09T14:55:50.264Z,101258.73
2022-08-09T14:58:43.791Z,101256.35
2022-08-09T15:01:34.102Z,101258.54
2022-08-09T15:04:24.820Z,101259.10
2022-08-09T15:07:15.558Z,101259.73
2022-08-09T15:10:11.297Z,101257.22
2022-08-09T15:13:08.703Z,101263.47
2022-08-09T15:15:59.432Z,101262.00
2022-08-09T15:18:49.832Z,101258.71
2022-08-09T15:22:01.305Z,101256.87
2022-08-09T15:24:52.536Z,101249.84
2022-08-09T15:27:48.140Z,101252.73
2022-08-09T15:30:58.118Z,101248.76
2022-08-09T15:34:18.381Z,101252.15
2022-08-09T15:37:23.645Z,101251.30
2022-08-09T15:40:16.500Z,101252.31
2022-08-09T15:43:13.530Z,101244.69
2022-08-09T15:46:28.336Z,101244.89
2022-08-09T15:49:22.843Z,101236.37
2022-08-09T15:52:14.007Z,101233.30
2022-08-09T15:55:04.420Z,101231.96
2022-08-09T15:57:55.051Z,101231.40
2022-08-09T16:00:46.064Z,101227.86
2022-08-09T16:03:41.652Z,101225.23
2022-08-09T16:06:37.696Z,101229.88
2022-08-09T16:09:32.404Z,101225.52
2022-08-09T16:12:41.555Z,101225.13
2022-08-09T16:16:11.298Z,101225.90
2022-08-09T16:18:50.748Z,101226.69
2022-08-09T16:21:48.585Z,101224.70
2022-08-09T16:24:44.914Z,101218.61
2022-08-09T16:27:47.909Z,101218.87
2022-08-09T16:30:44.610Z,101221.86
2022-08-09T16:33:44.961Z,101218.06
2022-08-09T16:36:35.366Z,101220.52
2022-08-09T16:39:26.474Z,101219.52
2022-08-09T16:42:16.804Z,101221.98
2022-08-09T16:45:17.586Z,101225.98
2022-08-09T16:48:39.301Z,101220.92
2022-08-09T16:51:20.537Z,101216.80
2022-08-09T16:54:27.719Z,101216.67
2022-08-09T16:57:23.126Z,101214.02
2022-08-09T17:00:16.478Z,101208.14
2022-08-09T17:03:08.344Z,101210.20
2022-08-09T17:06:28.840Z,101213.42
2022-08-09T17:09:45.498Z,101217.74
2022-08-09T17:12:32.766Z,101216.89
2022-08-09T17:15:58.716Z,101223.10
2022-08-09T17:18:33.701Z,101225.30
2022-08-09T17:21:29.004Z,101222.91
2022-08-09T17:24:27.071Z,101224.45
2022-08-09T17:27:21.055Z,101227.11
2022-08-09T17:30:14.405Z,101230.73
2022-08-09T17:33:22.254Z,101230.82
2022-08-09T17:36:15.595Z,101230.73
2022-08-09T17:39:06.527Z,101232.52
2022-08-09T17:42:01.478Z,101239.13
2022-08-09T17:44:51.703Z,101243.36
2022-08-09T17:47:49.907Z,101246.96
2022-08-09T17:50:55.908Z,101250.01
2022-08-09T17:53:51.559Z,101249.05
2022-08-09T17:56:43.925Z,101250.29
2022-08-09T17:59:38.277Z,101249.86
2022-08-09T18:02:33.474Z,101252.21
2022-08-09T18:05:29.350Z,101252.66
2022-08-09T18:08:35.547Z,101257.27
2022-08-09T18:11:27.741Z,101258.81
2022-08-09T18:14:19.254Z,101263.38
2022-08-09T18:17:13.450Z,101271.30
2022-08-09T18:21:00.487Z,101266.83
2022-08-09T18:24:11.280Z,101270.45
2022-08-09T18:26:31.966Z,101272.48
2022-08-09T18:30:35.403Z,101277.62
2022-08-09T18:32:33.766Z,101279.75
2022-08-09T18:35:58.321Z,101283.23
2022-08-09T18:38:35.562Z,101288.26
2022-08-09T18:41:27.419Z,101286.11
2022-08-09T18:44:18.031Z,101291.67
2022-08-09T18:47:16.622Z,101296.41
2022-08-09T18:50:08.987Z,101301.03
2022-08-09T18:53:00.282Z,101306.63
2022-08-09T18:55:56.957Z,101309.71
2022-08-09T18:58:55.800Z,101313.45
2022-08-09T19:01:46.517Z,101314.60
2022-08-09T19:04:36.672Z,101312.89
2022-08-09T19:07:27.752Z,101311.98
2022-08-09T19:10:22.570Z,101320.95
2022-08-09T19:13:20.566Z,101325.78
2022-08-09T19:16:20.945Z,101332.76
2022-08-09T19:19:25.422Z,101337.61
2022-08-09T19:22:18.493Z,101340.73
2022-08-09T19:25:41.379Z,101342.20
2022-08-09T19:28:22.285Z,101345.81
2022-08-09T19:31:18.954Z,101350.08
2022-08-09T19:34:21.481Z,101348.02
2022-08-09T19:37:16.823Z,101348.38
2022-08-09T19:40:08.470Z,101352.18
2022-08-09T19:42:59.169Z,101353.31
2022-08-09T19:45:54.385Z,101356.29
2022-08-09T19:49:01.668Z,101350.35
2022-08-09T19:51:55.257Z,101353.15
2022-08-09T19:54:49.558Z,101348.48
2022-08-09T19:57:41.163Z,101351.55
2022-08-09T20:00:32.832Z,101350.51
2022-08-09T20:04:11.676Z,101352.52
2022-08-09T20:06:34.335Z,101352.21
2022-08-09T20:09:44.620Z,101348.67
2022-08-09T20:12:42.702Z,101350.19
2022-08-09T20:16:38.058Z,101355.75
2022-08-09T20:18:51.998Z,101358.25
2022-08-09T20:22:02.030Z,101362.38
2022-08-09T20:24:55.249Z,101362.64
2022-08-09T20:27:46.065Z,101361.17
2022-08-09T20:30:36.734Z,101368.77
2022-08-09T20:33:27.893Z,101366.20
2022-08-09T20:36:30.508Z,101363.95
2022-08-09T20:40:13.851Z,101368.52
2022-08-09T20:42:33.238Z,101373.18
2022-08-09T20:46:00.168Z,101381.60
2022-08-09T20:48:33.788Z,101386.56
2022-08-09T20:51:27.318Z,101389.65
2022-08-09T20:54:18.550Z,101389.19
2022-08-09T20:57:09.676Z,101391.88
2022-08-09T21:00:31.411Z,101390.27
2022-08-09T21:03:10.525Z,101391.55
2022-08-09T21:06:01.306Z,101391.73
2022-08-09T21:08:56.545Z,101388.69
2022-08-09T21:15:00.555Z,101392.31
2022-08-09T21:18:23.354Z,101394.73
2022-08-09T21:21:16.989Z,101397.71
2022-08-09T21:24:09.257Z,101397.64
2022-08-09T21:27:10.510Z,101394.67
2022-08-09T21:30:14.181Z,101395.90
2022-08-09T21:33:11.622Z,101399.38
2022-08-09T21:36:06.979Z,101392.27
2022-08-09T21:39:01.119Z,101390.56
2022-08-09T21:42:05.177Z,101388.54
2022-08-09T21:44:57.380Z,101389.12
2022-08-09T21:47:51.036Z,101387.59
2022-08-09T21:50:46.675Z,101393.38
2022-08-09T21:53:44.016Z,101394.98
2022-08-09T21:56:44.604Z,101391.77
2022-08-09T21:59:47.623Z,101388.98
2022-08-09T22:02:40.233Z,101391.52
2022-08-09T22:05:35.629Z,101394.08
2022-08-09T22:08:30.315Z,101396.20
2022-08-09T22:12:04.336Z,101398.10
2022-08-09T22:14:31.335Z,101401.20
2022-08-09T22:17:22.504Z,101399.90
2022-08-09T22:20:21.519Z,101402.59
2022-08-09T22:23:13.381Z,101403.95
2022-08-09T22:26:12.779Z,101403.89
2022-08-09T22:29:15.099Z,101408.38
2022-08-09T22:32:08.063Z,101411.42
2022-08-09T22:36:02.397Z,101410.53
2022-08-09T22:38:29.019Z,101414.42
2022-08-09T22:41:19.964Z,101412.44
2022-08-09T22:44:11.348Z,101411.84
2022-08-09T22:48:11.230Z,101412.70
2022-08-09T22:50:13.539Z,101415.70
2022-08-09T22:53:05.283Z,101414.81
2022-08-09T22:56:31.499Z,101414.92
2022-08-09T22:59:56.072Z,101420.19
2022-08-09T23:02:21.164Z,101416.46
2022-08-09T23:05:15.953Z,101416.14
2022-08-09T23:08:30.070Z,101412.80
2022-08-09T23:11:22.410Z,101409.08
2022-08-09T23:14:17.560Z,101410.71
2022-08-09T23:17:20.732Z,101416.05
2022-08-09T23:20:13.767Z,101418.13
2022-08-09T23:23:04.994Z,101413.97
2022-08-09T23:25:58.293Z,101413.81
2022-08-09T23:28:48.788Z,101414.28
2022-08-09T23:31:38.981Z,101412.02
2022-08-09T23:34:33.759Z,101414.64
2022-08-09T23:37:31.461Z,101410.98
2022-08-09T23:40:21.368Z,101409.70
2022-08-09T23:43:11.754Z,101413.41
2022-08-09T23:46:02.448Z,101411.86
2022-08-09T23:48:55.286Z,101410.48
2022-08-09T23:51:45.765Z,101410.02
2022-08-09T23:54:36.843Z,101404.46
2022-08-09T23:57:28.681Z,101400.96
